Time;durP1;ratioP1;P1;durP2;ratioP2;P2;SDS_P1;SDS_P2;PMS_P1;PMS_P2;Temp;Humidity;BMP_temperature;BMP_pressure;BME280_temperature;BME280_humidity;BME280_pressure;Samples;Min_cycle;Max_cycle;Signal;HPM_P1;HPM_P2
2023/09/27 00:00:10;;;;;;;20.65;19.55;;;;;;;-141.02;70.05;41853.16;5135367;27;20192;-57
2023/09/27 00:02:38;;;;;;;20.95;19.85;;;;;;;-141.02;70.59;41860.84;5135228;27;20682;-60
2023/09/27 00:05:10;;;;;;;20.02;19.00;;;;;;;-141.02;71.44;41832.06;5134950;27;20222;-57
2023/09/27 00:07:37;;;;;;;20.58;19.48;;;;;;;-141.02;71.68;41837.81;5135121;27;20224;-58
2023/09/27 00:10:05;;;;;;;20.70;19.60;;;;;;;-141.02;71.73;41826.31;5134938;27;20279;-57
2023/09/27 00:12:33;;;;;;;20.63;19.52;;;;;;;-141.02;71.84;41803.28;5135065;27;20224;-62
2023/09/27 00:15:01;;;;;;;20.88;19.77;;;;;;;-141.02;71.94;41795.59;5135054;27;20188;-57
2023/09/27 00:17:29;;;;;;;20.88;19.77;;;;;;;-141.02;72.09;41816.72;5134482;27;20723;-57
2023/09/27 00:19:56;;;;;;;20.95;19.85;;;;;;;-141.02;72.48;41766.81;5134530;27;20280;-57
2023/09/27 00:22:25;;;;;;;21.15;20.05;;;;;;;-141.02;72.60;41789.84;5134662;27;20188;-57
2023/09/27 00:24:52;;;;;;;20.70;19.60;;;;;;;-141.02;72.99;41799.44;5134496;27;20628;-57
2023/09/27 00:27:18;;;;;;;20.40;19.30;;;;;;;-141.02;72.17;41749.53;5134862;27;20284;-57
2023/09/27 00:29:46;;;;;;;20.23;19.15;;;;;;;-141.02;72.31;41787.91;5134498;27;20192;-57
2023/09/27 00:32:13;;;;;;;20.50;19.40;;;;;;;-141.02;72.36;41780.25;5134418;27;20602;-57
2023/09/27 00:34:40;;;;;;;20.35;19.25;;;;;;;-141.02;72.57;41776.41;5134405;27;20196;-57
2023/09/27 00:37:09;;;;;;;20.13;19.02;;;;;;;-141.02;72.59;41782.16;5134596;27;20193;-57
2023/09/27 00:39:39;;;;;;;20.63;19.52;;;;;;;-141.02;73.08;41784.06;5134061;27;20239;-57
2023/09/27 00:42:08;;;;;;;20.52;19.42;;;;;;;-141.02;73.35;41766.81;5134201;27;20188;-57
2023/09/27 00:44:35;;;;;;;20.45;19.35;;;;;;;-141.02;73.49;41780.25;5134275;27;20662;-58
2023/09/27 00:47:03;;;;;;;20.58;19.48;;;;;;;-141.02;73.74;41780.25;5134392;27;20662;-64
2023/09/27 00:49:30;;;;;;;20.70;19.60;;;;;;;-141.02;74.22;41807.09;5134414;27;20223;-57
2023/09/27 00:51:58;;;;;;;19.95;18.85;;;;;;;-141.02;74.15;41812.88;5134291;27;20573;-57
2023/09/27 00:54:25;;;;;;;19.88;18.80;;;;;;;-141.02;74.37;41780.25;5134306;27;20539;-57
2023/09/27 00:56:54;;;;;;;19.42;18.42;;;;;;;-141.02;74.85;41795.59;5134037;27;20289;-57
2023/09/27 00:59:22;;;;;;;19.63;18.52;;;;;;;-141.02;74.60;41726.50;5134131;27;20227;-57
2023/09/27 01:01:48;;;;;;;20.02;18.92;;;;;;;-141.02;74.77;41793.69;5133848;27;20657;-57
2023/09/27 01:04:16;;;;;;;20.13;19.02;;;;;;;-141.02;74.27;41764.88;5133837;27;20287;-57
2023/09/27 01:06:44;;;;;;;19.80;18.70;;;;;;;-141.02;74.57;41774.47;5133713;27;20245;-57
2023/09/27 01:09:17;;;;;;;19.65;18.65;;;;;;;-141.02;75.35;41807.09;5132965;27;20189;-57
2023/09/27 01:11:46;;;;;;;20.05;18.95;;;;;;;-141.02;75.15;41801.34;5133676;27;20575;-57
2023/09/27 01:14:14;;;;;;;20.38;19.27;;;;;;;-141.02;75.87;41793.69;5133645;27;20573;-57
2023/09/27 01:16:42;;;;;;;19.80;18.70;;;;;;;-141.02;76.03;41770.66;5133839;27;20200;-57
2023/09/27 01:19:10;;;;;;;19.17;18.17;;;;;;;-141.02;76.63;41766.81;5133744;27;20242;-57
2023/09/27 01:21:37;;;;;;;19.40;18.40;;;;;;;-141.02;76.78;41757.22;5133504;27;20253;-57
2023/09/27 01:24:07;;;;;;;19.55;18.52;;;;;;;-141.02;77.33;41759.13;5133688;27;20196;-57
2023/09/27 01:26:37;;;;;;;19.38;18.38;;;;;;;-141.02;77.84;41766.81;5133780;27;20290;-65
2023/09/27 01:29:05;;;;;;;19.02;18.02;;;;;;;-141.02;77.64;41741.84;5133652;27;20192;-57
2023/09/27 01:31:33;;;;;;;19.27;18.27;;;;;;;-141.02;77.79;41724.59;5133641;27;20193;-57
2023/09/27 01:34:00;;;;;;;19.42;18.42;;;;;;;-141.02;78.32;41747.63;5133607;27;20241;-57
2023/09/27 01:36:27;;;;;;;19.25;18.25;;;;;;;-141.02;78.95;41711.16;5133570;27;20192;-57
2023/09/27 01:38:54;;;;;;;19.27;18.27;;;;;;;-141.02;78.80;41711.16;5133163;27;20311;-57
2023/09/27 01:41:24;;;;;;;19.27;18.27;;;;;;;-141.02;79.03;41691.97;5133536;27;20192;-57
2023/09/27 01:43:51;;;;;;;19.13;18.13;;;;;;;-141.02;79.00;41715.00;5133497;27;20192;-57
2023/09/27 01:46:19;;;;;;;19.48;18.48;;;;;;;-141.02;79.75;41693.88;5133458;27;20192;-57
2023/09/27 01:48:46;;;;;;;19.05;18.05;;;;;;;-141.02;79.61;41686.19;5133094;27;20662;-57
2023/09/27 01:51:18;;;;;;;19.50;18.50;;;;;;;-141.02;79.51;41661.25;5133371;27;20192;-57
2023/09/27 01:53:45;;;;;;;19.23;18.23;;;;;;;-141.02;79.64;41676.59;5133438;27;20673;-57
2023/09/27 01:56:13;;;;;;;19.60;18.60;;;;;;;-141.02;80.50;41674.69;5132867;27;20280;-57
2023/09/27 01:58:41;;;;;;;19.50;18.50;;;;;;;-141.02;80.17;41697.72;5132960;27;20248;-57
2023/09/27 02:01:08;;;;;;;19.30;18.30;;;;;;;-141.02;79.84;41661.25;5132684;28;20708;-58
2023/09/27 02:03:35;;;;;;;19.83;18.83;;;;;;;-141.02;80.18;41691.97;5133108;28;20235;-57
2023/09/27 02:06:01;;;;;;;19.80;18.80;;;;;;;-141.02;80.56;41668.94;5132963;27;20716;-57
2023/09/27 02:08:30;;;;;;;19.45;18.45;;;;;;;-141.02;81.00;41667.00;5133155;28;20202;-64
2023/09/27 02:10:58;;;;;;;19.55;18.55;;;;;;;-141.02;80.92;41661.25;5132885;27;20201;-57
2023/09/27 02:13:25;;;;;;;19.58;18.58;;;;;;;-141.02;80.86;41668.94;5132617;27;20283;-57
2023/09/27 02:15:54;;;;;;;19.67;18.67;;;;;;;-141.02;80.54;41684.28;5132786;28;20232;-57
2023/09/27 02:18:21;;;;;;;19.48;18.48;;;;;;;-141.02;80.44;41672.78;5133013;28;20231;-57
2023/09/27 02:20:49;;;;;;;19.75;18.75;;;;;;;-141.02;80.72;41678.53;5135160;27;20196;-57
2023/09/27 02:23:16;;;;;;;19.83;18.83;;;;;;;-141.02;80.40;41668.94;5137194;27;20192;-57
2023/09/27 02:25:43;;;;;;;19.45;18.45;;;;;;;-141.02;80.32;41680.44;5137168;27;20202;-57
2023/09/27 02:28:10;;;;;;;19.90;18.90;;;;;;;-141.02;80.49;41649.75;5137093;27;20278;-57
2023/09/27 02:30:37;;;;;;;19.23;18.23;;;;;;;-141.02;80.75;41695.81;5137078;27;20207;-57
2023/09/27 02:33:05;;;;;;;19.73;18.73;;;;;;;-141.02;81.45;41697.72;5137324;27;20203;-58
2023/09/27 02:35:32;;;;;;;19.75;18.75;;;;;;;-141.02;81.07;41684.28;5136781;27;20228;-58
2023/09/27 02:37:59;;;;;;;19.25;18.25;;;;;;;-141.02;82.97;41684.28;5136947;27;20279;-57
2023/09/27 02:40:27;;;;;;;18.70;17.80;;;;;;;-141.02;85.09;41642.06;5136846;27;20228;-57
2023/09/27 02:42:54;;;;;;;17.75;16.95;;;;;;;-141.02;87.90;41576.81;5136934;27;20191;-57
2023/09/27 02:45:21;;;;;;;17.13;16.33;;;;;;;-141.02;87.96;41538.44;5136288;27;20235;-57
2023/09/27 02:47:48;;;;;;;17.95;17.15;;;;;;;-141.02;88.91;41534.59;5136728;27;20291;-57
2023/09/27 02:50:17;;;;;;;17.30;16.50;;;;;;;-141.02;89.95;41536.53;5136488;27;20192;-57
2023/09/27 02:52:44;;;;;;;17.23;16.45;;;;;;;-141.02;91.24;41494.31;5136858;27;20188;-65
2023/09/27 02:55:11;;;;;;;17.00;16.30;;;;;;;-141.02;91.75;41469.34;5136626;27;20192;-57
2023/09/27 02:57:39;;;;;;;16.83;16.13;;;;;;;-141.02;91.59;41446.31;5136314;27;20239;-57
2023/09/27 03:00:08;;;;;;;16.30;15.60;;;;;;;-141.02;92.07;41465.50;5136187;27;20311;-57
2023/09/27 03:02:37;;;;;;;16.77;16.08;;;;;;;-141.02;93.39;41423.28;5136156;27;20194;-57
2023/09/27 03:05:05;;;;;;;16.55;15.85;;;;;;;-141.02;93.71;41415.63;5136689;27;20252;-58
2023/09/27 03:07:34;;;;;;;16.60;15.90;;;;;;;-141.02;93.32;41417.53;5136718;27;20192;-57
2023/09/27 03:10:02;;;;;;;16.05;15.35;;;;;;;-141.02;93.32;41429.06;5136372;27;20192;-57
2023/09/27 03:12:29;;;;;;;15.80;15.20;;;;;;;-141.02;93.68;41392.59;5136001;27;20283;-57
2023/09/27 03:14:56;;;;;;;16.42;15.73;;;;;;;-141.02;94.24;41388.75;5136310;27;20188;-57
2023/09/27 03:17:23;;;;;;;16.45;15.77;;;;;;;-141.02;94.95;41400.28;5135906;27;20232;-57
2023/09/27 03:19:50;;;;;;;16.10;15.50;;;;;;;-141.02;95.42;41361.91;5136050;27;20224;-57
2023/09/27 03:22:18;;;;;;;15.70;15.10;;;;;;;-141.02;95.74;41367.66;5136153;27;20192;-57
2023/09/27 03:24:46;;;;;;;15.80;15.20;;;;;;;-141.02;94.41;41363.81;5136049;27;20206;-57
2023/09/27 03:27:13;;;;;;;16.25;15.55;;;;;;;-141.02;94.78;41365.72;5136037;27;20197;-57
2023/09/27 03:29:40;;;;;;;16.48;15.77;;;;;;;-141.02;94.14;41381.09;5135690;27;20298;-57
2023/09/27 03:32:07;;;;;;;15.80;15.20;;;;;;;-141.02;95.15;41365.72;5135031;27;20199;-57
2023/09/27 03:34:35;;;;;;;15.50;14.90;;;;;;;-141.02;95.70;41346.53;5135604;27;20241;-57
2023/09/27 03:37:02;;;;;;;15.60;15.00;;;;;;;-141.02;96.03;41367.66;5135492;27;20658;-57
2023/09/27 03:39:35;;;;;;;16.10;15.50;;;;;;;-141.02;94.65;41354.22;5135180;27;20635;-57
2023/09/27 03:42:04;;;;;;;15.90;15.30;;;;;;;-141.02;96.00;41365.72;5135824;27;20181;-57
2023/09/27 03:44:31;;;;;;;15.60;15.00;;;;;;;-141.02;95.97;41331.19;5135656;27;20200;-57
2023/09/27 03:46:58;;;;;;;15.27;14.68;;;;;;;-141.02;95.30;41359.97;5135357;27;20287;-57
2023/09/27 03:49:25;;;;;;;16.13;15.52;;;;;;;-141.02;95.62;41346.53;5135265;27;20666;-57
2023/09/27 03:51:52;;;;;;;15.02;14.43;;;;;;;-141.02;95.49;41354.22;5134992;27;20579;-57
2023/09/27 03:54:19;;;;;;;15.50;14.90;;;;;;;-141.02;96.91;41335.03;5135174;27;20192;-57
2023/09/27 03:56:47;;;;;;;15.25;14.65;;;;;;;-141.02;96.60;41379.16;5135180;27;20240;-57
2023/09/27 03:59:15;;;;;;;15.50;14.90;;;;;;;-141.02;97.00;41319.69;5135289;27;20305;-57
2023/09/27 04:01:42;;;;;;;15.32;14.73;;;;;;;-141.02;96.62;41335.03;5135049;27;20238;-57
2023/09/27 04:04:09;;;;;;;15.57;14.98;;;;;;;-141.02;95.79;41377.25;5135322;27;20202;-57
2023/09/27 04:06:36;;;;;;;15.20;14.60;;;;;;;-141.02;97.36;41463.59;5135008;27;20214;-57
2023/09/27 04:09:03;;;;;;;15.20;14.60;;;;;;;-141.02;96.81;41607.53;5135237;27;20230;-57
2023/09/27 04:11:30;;;;;;;15.60;15.00;;;;;;;-141.02;97.97;41693.88;5134859;27;20232;-57
2023/09/27 04:13:57;;;;;;;15.43;14.82;;;;;;;-141.02;97.44;41709.22;5134808;27;20642;-57
2023/09/27 04:16:28;;;;;;;14.43;13.93;;;;;;;-141.02;98.32;41688.13;5134807;27;20228;-56
2023/09/27 04:18:55;;;;;;;15.88;15.27;;;;;;;-141.02;97.94;41676.59;5134743;27;20185;-57
2023/09/27 04:21:22;;;;;;;15.88;15.27;;;;;;;-141.02;97.99;41645.91;5134883;27;20709;-57
2023/09/27 04:23:55;;;;;;;15.57;14.98;;;;;;;-141.02;98.26;41690.03;5134912;27;20237;-57
2023/09/27 04:26:23;;;;;;;16.27;15.68;;;;;;;-141.02;98.52;41734.19;5134881;27;20202;-57
2023/09/27 04:28:51;;;;;;;15.88;15.27;;;;;;;-141.02;99.42;41764.88;5134776;27;20287;-57
2023/09/27 04:31:18;;;;;;;15.80;15.20;;;;;;;-141.02;97.88;41787.91;5134466;27;20196;-57
2023/09/27 04:33:47;;;;;;;15.98;15.38;;;;;;;-141.02;96.83;41828.22;5134471;27;20232;-57
2023/09/27 04:36:17;;;;;;;15.55;15.05;;;;;;;-141.02;97.75;41837.81;5134690;27;20196;-57
2023/09/27 04:38:44;;;;;;;15.38;14.88;;;;;;;-141.02;97.50;41880.03;5134640;27;20200;-57
2023/09/27 04:41:11;;;;;;;15.20;14.70;;;;;;;-141.02;97.81;41908.81;5134818;27;20232;-57
2023/09/27 04:43:38;;;;;;;15.30;14.80;;;;;;;-141.02;97.95;41951.06;5134545;27;20271;-57
2023/09/27 04:46:05;;;;;;;15.13;14.63;;;;;;;-141.02;96.88;41952.97;5134141;27;20193;-64
2023/09/27 04:48:32;;;;;;;15.82;15.23;;;;;;;-141.02;96.37;41977.91;5134170;27;20283;-57
2023/09/27 04:51:02;;;;;;;15.95;15.35;;;;;;;-141.02;95.83;41985.59;5134109;27;20224;-57
2023/09/27 04:53:34;;;;;;;15.77;15.18;;;;;;;-141.02;95.40;41999.03;5134338;27;20651;-57
2023/09/27 04:56:01;;;;;;;16.30;15.70;;;;;;;-141.02;95.16;42023.97;5134277;27;20181;-57
2023/09/27 04:58:28;;;;;;;15.77;15.18;;;;;;;-141.02;95.21;42014.38;5134320;27;20211;-57
2023/09/27 05:00:56;;;;;;;16.50;15.80;;;;;;;-141.02;94.40;42033.56;5134109;27;20314;-57
2023/09/27 05:03:23;;;;;;;16.63;15.93;;;;;;;-141.02;94.31;42052.78;5133851;27;20228;-57
2023/09/27 05:05:50;;;;;;;16.60;15.90;;;;;;;-141.02;93.82;42064.28;5133789;27;20197;-57
2023/09/27 05:08:18;;;;;;;16.63;15.93;;;;;;;-141.02;93.17;42045.09;5134098;27;20192;-57
2023/09/27 05:10:45;;;;;;;17.02;16.33;;;;;;;-141.02;93.90;42056.59;5134003;27;20200;-57
2023/09/27 05:13:12;;;;;;;16.88;16.17;;;;;;;-141.02;93.30;42079.63;5134787;27;20196;-57
2023/09/27 05:15:39;;;;;;;17.23;16.52;;;;;;;-141.02;92.69;42091.16;5133564;27;20623;-57
2023/09/27 05:18:06;;;;;;;17.20;16.50;;;;;;;-141.02;92.57;42064.28;5133841;27;20199;-65
2023/09/27 05:20:35;;;;;;;16.92;16.23;;;;;;;-141.02;92.81;42083.47;5133505;27;20223;-57
2023/09/27 05:23:02;;;;;;;17.05;16.35;;;;;;;-141.02;91.04;42091.16;5133484;27;20239;-57
2023/09/27 05:25:31;;;;;;;17.23;16.42;;;;;;;-141.02;90.34;42091.16;5133772;27;20200;-57
2023/09/27 05:27:58;;;;;;;16.90;16.20;;;;;;;-141.02;89.94;42091.16;5133953;27;20264;-57
2023/09/27 05:30:25;;;;;;;17.38;16.58;;;;;;;-141.02;89.65;42110.34;5133693;27;20192;-57
2023/09/27 05:32:53;;;;;;;17.67;16.88;;;;;;;-141.02;89.55;42125.69;5133300;27;20658;-57
2023/09/27 05:35:20;;;;;;;17.50;16.70;;;;;;;-141.02;89.38;42114.19;5133283;27;20283;-57
2023/09/27 05:37:49;;;;;;;17.90;17.10;;;;;;;-141.02;88.66;42083.47;5133316;27;20693;-57
2023/09/27 05:40:16;;;;;;;17.77;16.98;;;;;;;-141.02;88.75;42108.44;5133137;27;20759;-57
2023/09/27 05:42:44;;;;;;;18.20;17.30;;;;;;;-141.02;88.28;42106.50;5133516;27;20193;-57
2023/09/27 05:45:11;;;;;;;17.90;17.10;;;;;;;-141.02;87.67;42173.69;5133476;27;20196;-57
2023/09/27 05:47:39;;;;;;;17.80;17.00;;;;;;;-141.02;87.33;42167.94;5133138;27;20700;-57
2023/09/27 05:50:08;;;;;;;18.25;17.35;;;;;;;-141.02;86.70;42160.25;5133648;27;20193;-57
2023/09/27 05:52:35;;;;;;;18.35;17.55;;;;;;;-141.02;86.60;42141.06;5134035;27;20328;-57
2023/09/27 05:55:05;;;;;;;18.15;17.25;;;;;;;-141.02;86.13;42152.56;5132683;27;20235;-57
2023/09/27 05:57:32;;;;;;;18.33;17.42;;;;;;;-141.02;86.10;42137.22;5132753;27;20265;-57
2023/09/27 06:00:03;;;;;;;18.88;17.98;;;;;;;-141.02;86.29;42167.94;5132911;27;20240;-57
2023/09/27 06:02:31;;;;;;;18.60;17.70;;;;;;;-141.02;85.67;42156.41;5133286;27;20253;-57
2023/09/27 06:05:00;;;;;;;18.63;17.73;;;;;;;-141.02;84.92;42144.91;5132960;28;20194;-57
2023/09/27 06:07:27;;;;;;;18.65;17.75;;;;;;;-141.02;83.94;42167.94;5133191;28;20196;-57
2023/09/27 06:09:54;;;;;;;19.35;18.35;;;;;;;-141.02;83.32;42179.44;5133274;27;20201;-57
2023/09/27 06:12:21;;;;;;;19.10;18.17;;;;;;;-141.02;82.88;42166.00;5133169;28;20227;-57
2023/09/27 06:14:48;;;;;;;19.15;18.25;;;;;;;-141.02;83.00;42167.94;5133157;28;20271;-57
2023/09/27 06:17:17;;;;;;;18.95;18.05;;;;;;;-141.02;83.04;42187.13;5133162;28;20196;-57
2023/09/27 06:19:44;;;;;;;18.00;17.20;;;;;;;-141.02;82.57;42194.81;5132922;28;20245;-57
2023/09/27 06:22:13;;;;;;;19.05;18.15;;;;;;;-141.02;82.34;42164.09;5133105;27;20608;-58
2023/09/27 06:24:41;;;;;;;18.98;18.08;;;;;;;-141.02;82.15;42164.09;5132767;27;20231;-58
2023/09/27 06:27:08;;;;;;;19.10;18.20;;;;;;;-141.02;81.53;42167.94;5133053;28;20242;-57
2023/09/27 06:29:35;;;;;;;18.65;17.75;;;;;;;-141.02;82.62;42231.28;5132698;28;20192;-57
2023/09/27 06:32:02;;;;;;;18.23;17.33;;;;;;;-141.02;82.44;42175.59;5132748;27;20192;-57
2023/09/27 06:34:31;;;;;;;18.20;17.30;;;;;;;-141.02;81.88;42202.47;5132692;28;20200;-57
2023/09/27 06:36:58;;;;;;;18.27;17.38;;;;;;;-141.02;82.38;42171.78;5133201;28;20283;-57
2023/09/27 06:39:25;;;;;;;18.30;17.40;;;;;;;-141.02;82.13;42167.94;5132897;28;20223;-57
2023/09/27 06:41:52;;;;;;;18.95;18.05;;;;;;;-141.02;80.90;42200.56;5132549;28;20782;-57
2023/09/27 06:44:20;;;;;;;19.23;18.33;;;;;;;-141.02;81.56;42204.41;5132673;27;20276;-57
2023/09/27 06:46:48;;;;;;;19.35;18.45;;;;;;;-141.02;80.98;42206.31;5132908;28;20302;-57
2023/09/27 06:49:16;;;;;;;19.20;18.30;;;;;;;-141.02;81.37;42202.47;5133401;28;20196;-57
2023/09/27 06:51:45;;;;;;;19.33;18.42;;;;;;;-141.02;81.27;42202.47;5132808;28;20200;-57
2023/09/27 06:54:12;;;;;;;19.20;18.30;;;;;;;-141.02;80.37;42214.00;5132695;28;20227;-57
2023/09/27 06:56:39;;;;;;;19.10;18.20;;;;;;;-141.02;79.60;42215.91;5132570;28;20220;-57
2023/09/27 06:59:07;;;;;;;19.02;18.13;;;;;;;-141.02;79.05;42214.00;5132419;28;20619;-58
2023/09/27 07:01:34;;;;;;;19.15;18.25;;;;;;;-141.02;78.48;42225.50;5132374;28;20586;-57
2023/09/27 07:04:03;;;;;;;19.13;18.23;;;;;;;-141.02;76.55;42190.97;5132737;27;20283;-57
2023/09/27 07:06:30;;;;;;;19.50;18.50;;;;;;;-141.02;75.81;42187.13;5132508;27;20287;-58
2023/09/27 07:08:59;;;;;;;19.63;18.63;;;;;;;-141.02;75.35;42217.84;5136388;27;20268;-58
2023/09/27 07:11:26;;;;;;;19.23;18.33;;;;;;;-141.02;76.40;42252.38;5136317;27;20195;-57
2023/09/27 07:13:53;;;;;;;19.00;18.10;;;;;;;-141.02;77.48;42252.38;5136382;27;20196;-57
2023/09/27 07:16:21;;;;;;;18.90;18.00;;;;;;;-141.02;77.18;42210.16;5136289;27;20294;-57
2023/09/27 07:18:49;;;;;;;18.90;18.00;;;;;;;-141.02;77.04;42214.00;5135885;27;20577;-57
2023/09/27 07:21:19;;;;;;;19.00;18.08;;;;;;;-141.02;76.57;42240.88;5136353;27;20228;-57
2023/09/27 07:23:47;;;;;;;18.30;17.40;;;;;;;-141.02;76.91;42237.03;5135806;27;20197;-57
2023/09/27 07:26:16;;;;;;;18.75;17.85;;;;;;;-141.02;75.40;42208.25;5136080;27;20193;-57
2023/09/27 07:28:43;;;;;;;19.08;18.15;;;;;;;-141.02;74.90;42240.88;5135734;27;20201;-58
2023/09/27 07:31:13;;;;;;;18.58;17.67;;;;;;;-141.02;74.54;42281.19;5135724;27;20205;-57
2023/09/27 07:33:40;;;;;;;19.00;18.10;;;;;;;-141.02;74.64;42267.75;5135855;27;20678;-57
2023/09/27 07:36:09;;;;;;;19.48;18.50;;;;;;;-141.02;74.95;42331.09;5135943;27;20632;-57
2023/09/27 07:38:37;;;;;;;18.70;17.80;;;;;;;-141.02;73.59;42306.13;5135509;27;20676;-57
2023/09/27 07:41:04;;;;;;;18.80;17.90;;;;;;;-141.02;74.59;42323.41;5135377;27;20315;-58
2023/09/27 07:43:32;;;;;;;18.90;18.00;;;;;;;-141.02;73.75;42352.19;5135533;27;20196;-57
2023/09/27 07:46:06;;;;;;;18.90;18.00;;;;;;;-141.02;73.00;42344.53;5135331;27;20196;-57
2023/09/27 07:48:35;;;;;;;18.30;17.40;;;;;;;-141.02;73.67;42327.25;5135929;27;20189;-57
2023/09/27 07:51:02;;;;;;;19.13;18.13;;;;;;;-141.02;72.45;42359.88;5135523;27;20635;-57
2023/09/27 07:53:30;;;;;;;18.92;17.92;;;;;;;-141.02;73.21;42359.88;5135654;27;20192;-66
2023/09/27 07:55:57;;;;;;;19.17;18.20;;;;;;;-141.02;72.95;42344.53;5135752;27;20193;-57
2023/09/27 07:58:24;;;;;;;18.90;18.00;;;;;;;-141.02;71.46;42327.25;5135892;27;20226;-57
2023/09/27 08:00:52;;;;;;;18.85;17.88;;;;;;;-141.02;71.39;42375.22;5135334;27;20224;-57
2023/09/27 08:03:21;;;;;;;19.13;18.23;;;;;;;-141.02;71.49;42375.22;5135009;27;20231;-57
2023/09/27 08:05:49;;;;;;;18.67;17.75;;;;;;;-141.02;71.99;42452.00;5135369;27;20199;-57
2023/09/27 08:08:16;;;;;;;19.15;18.15;;;;;;;-141.02;71.11;42427.06;5135008;27;20281;-57
2023/09/27 08:10:45;;;;;;;19.05;18.05;;;;;;;-141.02;69.84;42421.28;5135257;27;20283;-57
2023/09/27 08:13:13;;;;;;;19.08;18.08;;;;;;;-141.02;69.27;42471.19;5135098;27;20226;-57
2023/09/27 08:15:41;;;;;;;18.83;17.83;;;;;;;-141.02;68.60;42448.16;5135116;27;20261;-57
2023/09/27 08:18:10;;;;;;;18.98;17.98;;;;;;;-141.02;67.04;42290.78;5134459;27;20729;-57
2023/09/27 08:20:37;;;;;;;19.40;18.00;;;;;;;-141.02;68.28;42442.41;5134911;27;20220;-58
2023/09/27 08:23:04;;;;;;;18.92;17.92;;;;;;;-141.02;67.73;42478.88;5134955;27;20193;-58
2023/09/27 08:25:32;;;;;;;18.75;17.75;;;;;;;-141.02;68.47;42461.59;5135039;27;20200;-57
2023/09/27 08:28:01;;;;;;;18.77;17.77;;;;;;;-141.02;68.48;42519.19;5134907;27;20193;-57
2023/09/27 08:30:28;;;;;;;18.70;17.80;;;;;;;-141.02;68.62;42494.25;5134816;27;20193;-57
2023/09/27 08:32:55;;;;;;;18.52;17.52;;;;;;;-141.02;66.39;42467.38;5134719;27;20196;-57
2023/09/27 08:35:24;;;;;;;18.63;17.63;;;;;;;-141.02;67.51;42501.91;5134798;27;20224;-57
2023/09/27 08:37:51;;;;;;;18.63;17.63;;;;;;;-141.02;67.47;42513.44;5134366;27;20193;-58
2023/09/27 08:40:19;;;;;;;18.30;17.30;;;;;;;-141.02;69.05;42461.59;5134359;27;20248;-58
2023/09/27 08:42:50;;;;;;;18.55;17.55;;;;;;;-141.02;67.72;42490.41;5134542;27;20228;-58
2023/09/27 08:45:22;;;;;;;17.67;16.77;;;;;;;-141.02;67.59;42524.94;5134676;27;20185;-58
2023/09/27 08:47:50;;;;;;;18.33;17.33;;;;;;;-141.02;67.00;42482.72;5134255;27;20272;-57
2023/09/27 08:50:19;;;;;;;18.15;17.17;;;;;;;-141.02;66.27;42509.59;5134111;27;20199;-58
2023/09/27 08:52:49;;;;;;;18.27;17.27;;;;;;;-141.02;65.89;42484.63;5134662;27;20227;-58
2023/09/27 08:55:18;;;;;;;18.20;17.20;;;;;;;-141.02;65.22;42509.59;5134635;27;20292;-58
2023/09/27 08:57:47;;;;;;;37.67;35.03;;;;;;;-141.02;66.08;42524.94;5134027;27;20705;-58
2023/09/27 09:00:20;;;;;;;18.33;17.33;;;;;;;-141.02;64.44;42505.75;5133892;27;20193;-58
2023/09/27 09:02:50;;;;;;;18.20;17.20;;;;;;;-141.02;65.17;42517.28;5133868;27;20303;-58
2023/09/27 09:05:19;;;;;;;18.20;17.23;;;;;;;-141.02;65.20;42534.56;5134052;27;20193;-57
2023/09/27 09:07:47;;;;;;;18.13;17.13;;;;;;;-141.02;65.43;42501.91;5134175;27;20239;-58
2023/09/27 09:10:16;;;;;;;17.80;16.90;;;;;;;-141.02;65.17;42534.56;5133804;27;20196;-58
2023/09/27 09:12:45;;;;;;;17.80;16.90;;;;;;;-141.02;63.72;42478.88;5133923;27;20220;-58
2023/09/27 09:15:15;;;;;;;18.00;17.10;;;;;;;-141.02;63.20;42465.44;5133648;27;20201;-58
2023/09/27 09:17:48;;;;;;;18.15;17.17;;;;;;;-141.02;64.11;42455.84;5133670;27;20210;-58
2023/09/27 09:20:22;;;;;;;18.42;17.42;;;;;;;-141.02;65.67;42501.91;5133584;27;20604;-58
2023/09/27 09:22:53;;;;;;;17.85;16.95;;;;;;;-141.02;64.51;42569.09;5133810;27;20208;-57
2023/09/27 09:25:22;;;;;;;17.35;16.45;;;;;;;-141.02;64.18;42590.22;5133619;27;20184;-58
2023/09/27 09:28:03;;;;;;;17.50;16.60;;;;;;;-141.02;64.10;42588.31;5133657;27;20193;-58
2023/09/27 09:30:38;;;;;;;17.67;16.77;;;;;;;-141.02;62.51;42509.59;5132729;27;20654;-58
2023/09/27 09:33:10;;;;;;;17.67;16.77;;;;;;;-141.02;64.24;42609.41;5133707;27;20272;-58
2023/09/27 09:35:38;;;;;;;17.60;16.70;;;;;;;-141.02;63.90;42586.38;5133428;27;20189;-66
2023/09/27 09:38:06;;;;;;;17.88;16.88;;;;;;;-141.02;61.78;42517.28;5133336;27;20228;-58
2023/09/27 09:40:34;;;;;;;18.00;17.10;;;;;;;-141.02;60.56;42425.13;5133202;27;20192;-58
2023/09/27 09:43:02;;;;;;;17.85;16.95;;;;;;;-141.02;59.97;42505.75;5133423;27;20228;-58
2023/09/27 09:45:30;;;;;;;17.50;16.60;;;;;;;-141.02;62.98;42588.31;5133493;27;20227;-58
2023/09/27 09:47:57;;;;;;;17.60;16.70;;;;;;;-141.02;62.44;42574.88;5133743;27;20196;-58
2023/09/27 09:50:26;;;;;;;17.70;16.80;;;;;;;-141.02;63.03;42597.91;5133345;27;20192;-58
2023/09/27 09:52:57;;;;;;;18.05;17.05;;;;;;;-141.02;63.21;42607.50;5133131;27;20200;-58
2023/09/27 09:55:27;;;;;;;18.30;17.40;;;;;;;-141.02;62.71;42615.16;5133027;27;20188;-58
2023/09/27 09:57:59;;;;;;;18.83;17.70;;;;;;;-141.02;61.95;42622.84;5133226;27;20239;-58
2023/09/27 10:00:30;;;;;;;17.25;16.35;;;;;;;-141.02;62.22;42615.16;5133343;27;20267;-58
2023/09/27 10:03:03;;;;;;;17.52;16.63;;;;;;;-141.02;62.10;42590.22;5130366;28;21758;-58
2023/09/27 10:05:37;;;;;;;17.52;16.63;;;;;;;-141.02;59.95;42551.81;5112766;28;20182;-66
2023/09/27 10:08:06;;;;;;;17.55;16.65;;;;;;;-141.02;61.29;42624.78;5112466;28;20193;-58
2023/09/27 10:10:34;;;;;;;17.60;16.70;;;;;;;-141.02;61.72;42619.00;5112279;28;20201;-58
2023/09/27 10:13:04;;;;;;;17.60;16.70;;;;;;;-141.02;61.46;42607.50;5112627;28;20295;-58
2023/09/27 10:15:34;;;;;;;17.27;16.38;;;;;;;-141.02;62.21;42613.25;5113040;28;20193;-58
2023/09/27 10:18:33;;;;;;;17.38;16.48;;;;;;;-141.02;61.57;42528.78;5112599;28;20597;-58
2023/09/27 10:21:08;;;;;;;17.48;16.58;;;;;;;-141.02;62.26;42578.69;5112225;28;20571;-58
2023/09/27 10:23:37;;;;;;;17.35;16.45;;;;;;;-141.02;60.66;42536.47;5112720;28;20276;-58
2023/09/27 10:26:37;;;;;;;17.45;16.55;;;;;;;-141.02;61.72;42597.91;5123411;28;20196;-58
2023/09/27 10:29:13;;;;;;;17.75;16.85;;;;;;;-141.02;62.65;42553.75;5133086;28;20246;-57
2023/09/27 10:32:22;;;;;;;17.63;16.73;;;;;;;-141.02;62.96;42605.56;5133264;28;20275;-58
2023/09/27 10:34:51;;;;;;;17.65;16.75;;;;;;;-141.02;62.13;42584.47;5131905;27;20192;-58
2023/09/27 10:38:10;;;;;;;17.65;16.75;;;;;;;-141.02;61.55;42605.56;5133019;27;20196;-58
2023/09/27 10:40:44;;;;;;;17.73;16.83;;;;;;;-141.02;61.30;42609.41;5070060;28;20198;-58
2023/09/27 10:43:40;;;;;;;17.60;16.70;;;;;;;-141.02;60.82;42567.19;5128093;27;20220;-58
2023/09/27 10:46:08;;;;;;;17.55;16.65;;;;;;;-141.02;60.67;42563.34;5136567;27;20549;-58
2023/09/27 10:48:36;;;;;;;17.23;16.33;;;;;;;-141.02;60.85;42643.97;5136837;27;20275;-58
2023/09/27 10:51:03;;;;;;;17.48;16.58;;;;;;;-141.02;61.69;42645.88;5136175;27;20568;-58
2023/09/27 10:53:33;;;;;;;16.88;16.08;;;;;;;-141.02;61.31;42622.84;5136523;27;20192;-65
2023/09/27 10:56:00;;;;;;;17.50;16.60;;;;;;;-141.02;60.49;42609.41;5136752;27;20201;-58
2023/09/27 10:58:29;;;;;;;17.45;16.55;;;;;;;-141.02;60.26;42615.16;5135977;27;20311;-58
2023/09/27 11:00:57;;;;;;;17.73;16.83;;;;;;;-141.02;60.51;42590.22;5136322;27;20227;-58
2023/09/27 11:03:24;;;;;;;17.45;16.55;;;;;;;-141.02;60.46;42603.66;5136468;27;20311;-58
2023/09/27 11:05:52;;;;;;;17.20;16.33;;;;;;;-141.02;61.12;42632.44;5136039;27;20284;-58
2023/09/27 11:08:23;;;;;;;17.20;16.30;;;;;;;-141.02;61.00;42643.97;5136453;27;20188;-58